sensor_id;sensor_type;location;lat;lon;timestamp;P1;durP1;ratioP1;P2;durP2;ratioP2
10617;SDS011;5356;43.526;26.534;2023-06-19T00:02:14;5.07;;;3.00;;
10617;SDS011;5356;43.526;26.534;2023-06-19T00:04:40;5.40;;;3.13;;
10617;SDS011;5356;43.526;26.534;2023-06-19T00:07:05;6.80;;;2.90;;
10617;SDS011;5356;43.526;26.534;2023-06-19T00:09:31;8.15;;;3.30;;
10617;SDS011;5356;43.526;26.534;2023-06-19T00:11:57;4.78;;;3.15;;
10617;SDS011;5356;43.526;26.534;2023-06-19T00:14:24;4.70;;;2.78;;
10617;SDS011;5356;43.526;26.534;2023-06-19T00:16:50;5.28;;;3.10;;
10617;SDS011;5356;43.526;26.534;2023-06-19T00:19:16;4.28;;;3.17;;
10617;SDS011;5356;43.526;26.534;2023-06-19T00:21:42;6.10;;;3.22;;
10617;SDS011;5356;43.526;26.534;2023-06-19T00:24:07;7.72;;;3.30;;
10617;SDS011;5356;43.526;26.534;2023-06-19T00:26:34;5.63;;;3.40;;
10617;SDS011;5356;43.526;26.534;2023-06-19T00:28:59;7.40;;;3.40;;
10617;SDS011;5356;43.526;26.534;2023-06-19T00:31:25;6.63;;;3.30;;
10617;SDS011;5356;43.526;26.534;2023-06-19T00:33:52;7.53;;;3.33;;
10617;SDS011;5356;43.526;26.534;2023-06-19T00:36:17;6.75;;;3.17;;
10617;SDS011;5356;43.526;26.534;2023-06-19T00:38:46;7.25;;;3.45;;
10617;SDS011;5356;43.526;26.534;2023-06-19T00:41:15;4.97;;;3.30;;
10617;SDS011;5356;43.526;26.534;2023-06-19T00:43:42;6.85;;;3.78;;
10617;SDS011;5356;43.526;26.534;2023-06-19T00:46:07;5.25;;;3.47;;
10617;SDS011;5356;43.526;26.534;2023-06-19T00:48:34;6.88;;;3.13;;
10617;SDS011;5356;43.526;26.534;2023-06-19T00:51:00;7.53;;;4.05;;
10617;SDS011;5356;43.526;26.534;2023-06-19T00:53:25;7.05;;;3.38;;
10617;SDS011;5356;43.526;26.534;2023-06-19T00:55:52;5.05;;;2.92;;
10617;SDS011;5356;43.526;26.534;2023-06-19T00:58:20;8.45;;;3.53;;
10617;SDS011;5356;43.526;26.534;2023-06-19T01:00:46;6.47;;;3.75;;
10617;SDS011;5356;43.526;26.534;2023-06-19T01:03:12;5.78;;;3.03;;
10617;SDS011;5356;43.526;26.534;2023-06-19T01:05:38;5.10;;;3.33;;
10617;SDS011;5356;43.526;26.534;2023-06-19T01:08:13;4.97;;;3.60;;
10617;SDS011;5356;43.526;26.534;2023-06-19T01:10:52;5.03;;;3.35;;
10617;SDS011;5356;43.526;26.534;2023-06-19T01:13:27;6.88;;;4.03;;
10617;SDS011;5356;43.526;26.534;2023-06-19T01:15:59;5.63;;;3.72;;
10617;SDS011;5356;43.526;26.534;2023-06-19T01:18:29;6.25;;;4.00;;
10617;SDS011;5356;43.526;26.534;2023-06-19T01:20:55;7.15;;;4.30;;
10617;SDS011;5356;43.526;26.534;2023-06-19T01:23:21;7.72;;;3.58;;
10617;SDS011;5356;43.526;26.534;2023-06-19T01:25:46;6.55;;;3.55;;
10617;SDS011;5356;43.526;26.534;2023-06-19T01:28:12;5.65;;;3.83;;
10617;SDS011;5356;43.526;26.534;2023-06-19T01:30:40;6.10;;;4.10;;
10617;SDS011;5356;43.526;26.534;2023-06-19T01:33:20;5.82;;;3.50;;
10617;SDS011;5356;43.526;26.534;2023-06-19T01:35:51;7.88;;;4.28;;
10617;SDS011;5356;43.526;26.534;2023-06-19T01:38:17;8.40;;;3.97;;
10617;SDS011;5356;43.526;26.534;2023-06-19T01:40:46;7.95;;;4.25;;
10617;SDS011;5356;43.526;26.534;2023-06-19T01:43:14;10.02;;;4.82;;
10617;SDS011;5356;43.526;26.534;2023-06-19T01:45:41;9.75;;;4.20;;
10617;SDS011;5356;43.526;26.534;2023-06-19T01:48:07;7.32;;;4.50;;
10617;SDS011;5356;43.526;26.534;2023-06-19T01:50:34;8.65;;;3.70;;
10617;SDS011;5356;43.526;26.534;2023-06-19T01:53:00;6.95;;;3.75;;
10617;SDS011;5356;43.526;26.534;2023-06-19T01:55:26;7.85;;;4.53;;
10617;SDS011;5356;43.526;26.534;2023-06-19T01:57:51;7.50;;;4.25;;
10617;SDS011;5356;43.526;26.534;2023-06-19T02:00:17;8.82;;;4.47;;
10617;SDS011;5356;43.526;26.534;2023-06-19T02:02:43;10.57;;;5.13;;
10617;SDS011;5356;43.526;26.534;2023-06-19T02:05:08;7.75;;;4.50;;
10617;SDS011;5356;43.526;26.534;2023-06-19T02:07:34;6.68;;;4.28;;
10617;SDS011;5356;43.526;26.534;2023-06-19T02:09:59;10.70;;;5.13;;
10617;SDS011;5356;43.526;26.534;2023-06-19T02:12:25;6.82;;;4.72;;
10617;SDS011;5356;43.526;26.534;2023-06-19T02:14:51;5.43;;;4.18;;
10617;SDS011;5356;43.526;26.534;2023-06-19T02:17:16;12.52;;;4.97;;
10617;SDS011;5356;43.526;26.534;2023-06-19T02:19:42;7.72;;;4.82;;
10617;SDS011;5356;43.526;26.534;2023-06-19T02:22:08;8.82;;;5.30;;
10617;SDS011;5356;43.526;26.534;2023-06-19T02:24:33;7.70;;;4.47;;
10617;SDS011;5356;43.526;26.534;2023-06-19T02:26:58;9.50;;;4.85;;
10617;SDS011;5356;43.526;26.534;2023-06-19T02:29:24;10.63;;;5.30;;
10617;SDS011;5356;43.526;26.534;2023-06-19T02:31:50;12.25;;;5.25;;
10617;SDS011;5356;43.526;26.534;2023-06-19T02:34:16;7.15;;;5.47;;
10617;SDS011;5356;43.526;26.534;2023-06-19T02:36:42;9.98;;;5.22;;
10617;SDS011;5356;43.526;26.534;2023-06-19T02:39:07;7.68;;;4.93;;
10617;SDS011;5356;43.526;26.534;2023-06-19T02:41:33;7.80;;;4.65;;
10617;SDS011;5356;43.526;26.534;2023-06-19T02:43:59;8.68;;;4.57;;
10617;SDS011;5356;43.526;26.534;2023-06-19T02:46:24;8.52;;;5.22;;
10617;SDS011;5356;43.526;26.534;2023-06-19T02:48:50;8.38;;;4.90;;
10617;SDS011;5356;43.526;26.534;2023-06-19T02:51:15;7.32;;;5.68;;
10617;SDS011;5356;43.526;26.534;2023-06-19T02:53:41;10.13;;;4.55;;
10617;SDS011;5356;43.526;26.534;2023-06-19T02:56:07;9.43;;;4.82;;
10617;SDS011;5356;43.526;26.534;2023-06-19T02:58:33;5.68;;;4.85;;
10617;SDS011;5356;43.526;26.534;2023-06-19T03:00:59;8.02;;;5.03;;
10617;SDS011;5356;43.526;26.534;2023-06-19T03:03:25;7.88;;;4.88;;
10617;SDS011;5356;43.526;26.534;2023-06-19T03:05:50;8.15;;;5.00;;
10617;SDS011;5356;43.526;26.534;2023-06-19T03:08:15;8.77;;;5.07;;
10617;SDS011;5356;43.526;26.534;2023-06-19T03:10:41;5.72;;;4.57;;
10617;SDS011;5356;43.526;26.534;2023-06-19T03:13:06;6.82;;;4.28;;
10617;SDS011;5356;43.526;26.534;2023-06-19T03:15:32;6.55;;;5.22;;
10617;SDS011;5356;43.526;26.534;2023-06-19T03:17:57;6.55;;;4.68;;
10617;SDS011;5356;43.526;26.534;2023-06-19T03:20:23;5.78;;;4.88;;
10617;SDS011;5356;43.526;26.534;2023-06-19T03:22:48;7.45;;;4.70;;
10617;SDS011;5356;43.526;26.534;2023-06-19T03:25:14;8.27;;;4.47;;
10617;SDS011;5356;43.526;26.534;2023-06-19T03:27:39;6.30;;;4.55;;
10617;SDS011;5356;43.526;26.534;2023-06-19T03:30:05;8.88;;;4.85;;
10617;SDS011;5356;43.526;26.534;2023-06-19T03:32:34;7.22;;;4.88;;
10617;SDS011;5356;43.526;26.534;2023-06-19T03:35:01;8.77;;;5.50;;
10617;SDS011;5356;43.526;26.534;2023-06-19T03:37:27;10.57;;;5.45;;
10617;SDS011;5356;43.526;26.534;2023-06-19T03:39:52;7.85;;;5.28;;
10617;SDS011;5356;43.526;26.534;2023-06-19T03:42:18;6.55;;;5.00;;
10617;SDS011;5356;43.526;26.534;2023-06-19T03:44:43;6.45;;;4.90;;
10617;SDS011;5356;43.526;26.534;2023-06-19T03:47:09;12.15;;;5.22;;
10617;SDS011;5356;43.526;26.534;2023-06-19T03:49:34;7.65;;;5.47;;
10617;SDS011;5356;43.526;26.534;2023-06-19T03:52:00;6.90;;;5.03;;
10617;SDS011;5356;43.526;26.534;2023-06-19T03:54:26;10.07;;;5.75;;
10617;SDS011;5356;43.526;26.534;2023-06-19T03:56:51;6.80;;;4.60;;
10617;SDS011;5356;43.526;26.534;2023-06-19T03:59:17;5.63;;;4.60;;
10617;SDS011;5356;43.526;26.534;2023-06-19T04:01:43;8.07;;;5.28;;
10617;SDS011;5356;43.526;26.534;2023-06-19T04:04:08;8.38;;;5.43;;
10617;SDS011;5356;43.526;26.534;2023-06-19T04:06:34;7.03;;;5.40;;
10617;SDS011;5356;43.526;26.534;2023-06-19T04:08:59;9.10;;;5.97;;
10617;SDS011;5356;43.526;26.534;2023-06-19T04:11:25;10.55;;;5.82;;
10617;SDS011;5356;43.526;26.534;2023-06-19T04:13:50;9.70;;;5.20;;
10617;SDS011;5356;43.526;26.534;2023-06-19T04:16:16;9.18;;;6.32;;
10617;SDS011;5356;43.526;26.534;2023-06-19T04:18:41;7.20;;;5.10;;
10617;SDS011;5356;43.526;26.534;2023-06-19T04:21:07;7.20;;;6.07;;
10617;SDS011;5356;43.526;26.534;2023-06-19T04:23:32;9.43;;;5.93;;
10617;SDS011;5356;43.526;26.534;2023-06-19T04:25:58;7.88;;;5.05;;
10617;SDS011;5356;43.526;26.534;2023-06-19T04:28:23;8.43;;;6.30;;
10617;SDS011;5356;43.526;26.534;2023-06-19T04:30:49;7.97;;;5.30;;
10617;SDS011;5356;43.526;26.534;2023-06-19T04:33:14;8.57;;;6.05;;
10617;SDS011;5356;43.526;26.534;2023-06-19T04:35:40;6.97;;;5.07;;
10617;SDS011;5356;43.526;26.534;2023-06-19T04:38:09;6.80;;;5.85;;
10617;SDS011;5356;43.526;26.534;2023-06-19T04:40:34;7.85;;;6.03;;
10617;SDS011;5356;43.526;26.534;2023-06-19T04:43:03;11.13;;;6.85;;
10617;SDS011;5356;43.526;26.534;2023-06-19T04:45:30;11.38;;;6.35;;
10617;SDS011;5356;43.526;26.534;2023-06-19T04:47:56;8.73;;;5.60;;
10617;SDS011;5356;43.526;26.534;2023-06-19T04:50:21;10.57;;;5.97;;
10617;SDS011;5356;43.526;26.534;2023-06-19T04:52:47;6.75;;;5.35;;
10617;SDS011;5356;43.526;26.534;2023-06-19T04:55:15;9.52;;;5.47;;
10617;SDS011;5356;43.526;26.534;2023-06-19T04:57:40;8.75;;;5.53;;
10617;SDS011;5356;43.526;26.534;2023-06-19T05:00:06;8.30;;;6.10;;
10617;SDS011;5356;43.526;26.534;2023-06-19T05:02:32;8.02;;;5.57;;
10617;SDS011;5356;43.526;26.534;2023-06-19T05:04:59;10.75;;;5.85;;
10617;SDS011;5356;43.526;26.534;2023-06-19T05:07:29;11.50;;;5.55;;
10617;SDS011;5356;43.526;26.534;2023-06-19T05:09:55;6.93;;;5.70;;
10617;SDS011;5356;43.526;26.534;2023-06-19T05:12:21;8.00;;;6.18;;
10617;SDS011;5356;43.526;26.534;2023-06-19T05:14:46;11.90;;;6.65;;
10617;SDS011;5356;43.526;26.534;2023-06-19T05:17:12;17.42;;;7.15;;
10617;SDS011;5356;43.526;26.534;2023-06-19T05:19:37;15.27;;;7.88;;
10617;SDS011;5356;43.526;26.534;2023-06-19T05:22:03;13.20;;;7.10;;
10617;SDS011;5356;43.526;26.534;2023-06-19T05:24:28;9.02;;;6.63;;
10617;SDS011;5356;43.526;26.534;2023-06-19T05:26:54;11.15;;;6.40;;
10617;SDS011;5356;43.526;26.534;2023-06-19T05:29:19;11.25;;;6.35;;
10617;SDS011;5356;43.526;26.534;2023-06-19T05:31:45;8.48;;;5.50;;
10617;SDS011;5356;43.526;26.534;2023-06-19T05:34:10;9.48;;;6.07;;
10617;SDS011;5356;43.526;26.534;2023-06-19T05:36:35;7.68;;;5.05;;
10617;SDS011;5356;43.526;26.534;2023-06-19T05:39:01;10.50;;;5.82;;
10617;SDS011;5356;43.526;26.534;2023-06-19T05:41:27;8.85;;;5.72;;
10617;SDS011;5356;43.526;26.534;2023-06-19T05:43:52;7.75;;;5.07;;
10617;SDS011;5356;43.526;26.534;2023-06-19T05:46:17;10.82;;;6.05;;
10617;SDS011;5356;43.526;26.534;2023-06-19T05:48:43;8.85;;;6.10;;
10617;SDS011;5356;43.526;26.534;2023-06-19T05:51:08;7.05;;;5.85;;
10617;SDS011;5356;43.526;26.534;2023-06-19T05:53:34;7.45;;;5.43;;
10617;SDS011;5356;43.526;26.534;2023-06-19T05:55:59;9.35;;;6.05;;
10617;SDS011;5356;43.526;26.534;2023-06-19T05:58:25;7.80;;;5.60;;
10617;SDS011;5356;43.526;26.534;2023-06-19T06:00:50;9.70;;;6.35;;
10617;SDS011;5356;43.526;26.534;2023-06-19T06:03:22;10.32;;;6.93;;
10617;SDS011;5356;43.526;26.534;2023-06-19T06:05:51;9.30;;;6.45;;
10617;SDS011;5356;43.526;26.534;2023-06-19T06:08:17;9.40;;;7.22;;
10617;SDS011;5356;43.526;26.534;2023-06-19T06:10:42;9.68;;;7.03;;
10617;SDS011;5356;43.526;26.534;2023-06-19T06:13:08;11.73;;;7.15;;
10617;SDS011;5356;43.526;26.534;2023-06-19T06:15:33;8.10;;;6.70;;
10617;SDS011;5356;43.526;26.534;2023-06-19T06:17:59;9.82;;;7.20;;
10617;SDS011;5356;43.526;26.534;2023-06-19T06:20:25;8.30;;;6.55;;
10617;SDS011;5356;43.526;26.534;2023-06-19T06:22:51;8.77;;;6.65;;
10617;SDS011;5356;43.526;26.534;2023-06-19T06:25:16;9.07;;;6.47;;
10617;SDS011;5356;43.526;26.534;2023-06-19T06:27:41;7.47;;;6.60;;
10617;SDS011;5356;43.526;26.534;2023-06-19T06:30:07;8.98;;;6.70;;
10617;SDS011;5356;43.526;26.534;2023-06-19T06:32:33;11.93;;;6.65;;
10617;SDS011;5356;43.526;26.534;2023-06-19T06:34:59;9.57;;;7.03;;
10617;SDS011;5356;43.526;26.534;2023-06-19T06:37:24;9.18;;;6.65;;
10617;SDS011;5356;43.526;26.534;2023-06-19T06:39:50;9.63;;;6.10;;
10617;SDS011;5356;43.526;26.534;2023-06-19T06:42:16;7.93;;;6.43;;
10617;SDS011;5356;43.526;26.534;2023-06-19T06:44:42;10.70;;;6.25;;
10617;SDS011;5356;43.526;26.534;2023-06-19T06:47:08;7.30;;;5.85;;
10617;SDS011;5356;43.526;26.534;2023-06-19T06:49:33;9.00;;;5.82;;
10617;SDS011;5356;43.526;26.534;2023-06-19T06:52:01;8.52;;;5.97;;
10617;SDS011;5356;43.526;26.534;2023-06-19T06:54:28;6.40;;;5.30;;
10617;SDS011;5356;43.526;26.534;2023-06-19T06:56:54;7.60;;;6.07;;
10617;SDS011;5356;43.526;26.534;2023-06-19T06:59:23;7.10;;;6.18;;
10617;SDS011;5356;43.526;26.534;2023-06-19T07:01:54;8.85;;;5.75;;
10617;SDS011;5356;43.526;26.534;2023-06-19T07:04:21;7.60;;;5.97;;
10617;SDS011;5356;43.526;26.534;2023-06-19T07:06:46;8.23;;;5.97;;
10617;SDS011;5356;43.526;26.534;2023-06-19T07:09:12;7.68;;;6.30;;
10617;SDS011;5356;43.526;26.534;2023-06-19T07:11:39;7.60;;;6.55;;
10617;SDS011;5356;43.526;26.534;2023-06-19T07:14:04;8.98;;;5.80;;
10617;SDS011;5356;43.526;26.534;2023-06-19T07:16:30;6.88;;;5.03;;
10617;SDS011;5356;43.526;26.534;2023-06-19T07:18:55;6.95;;;5.20;;
10617;SDS011;5356;43.526;26.534;2023-06-19T07:21:20;5.93;;;5.30;;
10617;SDS011;5356;43.526;26.534;2023-06-19T07:23:46;7.75;;;5.57;;
10617;SDS011;5356;43.526;26.534;2023-06-19T07:26:15;7.43;;;5.63;;
10617;SDS011;5356;43.526;26.534;2023-06-19T07:28:41;8.52;;;6.05;;
10617;SDS011;5356;43.526;26.534;2023-06-19T07:31:07;7.35;;;5.05;;
10617;SDS011;5356;43.526;26.534;2023-06-19T07:33:33;9.25;;;6.10;;
10617;SDS011;5356;43.526;26.534;2023-06-19T07:35:58;7.88;;;5.85;;
10617;SDS011;5356;43.526;26.534;2023-06-19T07:38:24;7.05;;;4.70;;
10617;SDS011;5356;43.526;26.534;2023-06-19T07:40:49;5.93;;;5.32;;
10617;SDS011;5356;43.526;26.534;2023-06-19T07:43:16;7.70;;;5.07;;
10617;SDS011;5356;43.526;26.534;2023-06-19T07:45:42;10.48;;;6.32;;
10617;SDS011;5356;43.526;26.534;2023-06-19T07:48:08;5.63;;;4.07;;
10617;SDS011;5356;43.526;26.534;2023-06-19T07:50:33;5.40;;;4.90;;
10617;SDS011;5356;43.526;26.534;2023-06-19T07:52:59;6.65;;;4.55;;
10617;SDS011;5356;43.526;26.534;2023-06-19T07:55:25;7.88;;;5.15;;
10617;SDS011;5356;43.526;26.534;2023-06-19T07:57:50;6.32;;;4.80;;
10617;SDS011;5356;43.526;26.534;2023-06-19T08:00:17;5.57;;;4.07;;
10617;SDS011;5356;43.526;26.534;2023-06-19T08:02:43;4.72;;;4.00;;
10617;SDS011;5356;43.526;26.534;2023-06-19T08:05:09;7.72;;;4.88;;
10617;SDS011;5356;43.526;26.534;2023-06-19T08:07:35;5.45;;;4.10;;
10617;SDS011;5356;43.526;26.534;2023-06-19T08:10:01;5.93;;;4.95;;
10617;SDS011;5356;43.526;26.534;2023-06-19T08:12:28;5.65;;;4.40;;
10617;SDS011;5356;43.526;26.534;2023-06-19T08:14:54;4.72;;;4.25;;
10617;SDS011;5356;43.526;26.534;2023-06-19T08:17:19;5.80;;;4.30;;
10617;SDS011;5356;43.526;26.534;2023-06-19T08:19:45;8.77;;;6.30;;
10617;SDS011;5356;43.526;26.534;2023-06-19T08:22:10;8.88;;;5.95;;
10617;SDS011;5356;43.526;26.534;2023-06-19T08:24:36;4.70;;;3.97;;
10617;SDS011;5356;43.526;26.534;2023-06-19T08:27:04;6.70;;;4.47;;
10617;SDS011;5356;43.526;26.534;2023-06-19T08:29:29;4.95;;;4.40;;
10617;SDS011;5356;43.526;26.534;2023-06-19T08:31:55;6.70;;;4.10;;
10617;SDS011;5356;43.526;26.534;2023-06-19T08:34:20;6.75;;;4.95;;
10617;SDS011;5356;43.526;26.534;2023-06-19T08:36:46;5.32;;;4.50;;
10617;SDS011;5356;43.526;26.534;2023-06-19T08:39:11;6.80;;;4.38;;
10617;SDS011;5356;43.526;26.534;2023-06-19T08:41:37;4.60;;;4.13;;
10617;SDS011;5356;43.526;26.534;2023-06-19T08:44:04;5.75;;;3.75;;
10617;SDS011;5356;43.526;26.534;2023-06-19T08:46:30;4.20;;;3.35;;
10617;SDS011;5356;43.526;26.534;2023-06-19T08:48:55;5.35;;;3.58;;
10617;SDS011;5356;43.526;26.534;2023-06-19T08:51:22;12.15;;;5.63;;
10617;SDS011;5356;43.526;26.534;2023-06-19T08:53:48;7.60;;;4.57;;
10617;SDS011;5356;43.526;26.534;2023-06-19T08:56:18;5.45;;;4.03;;
10617;SDS011;5356;43.526;26.534;2023-06-19T08:58:44;5.88;;;3.63;;
10617;SDS011;5356;43.526;26.534;2023-06-19T09:01:09;5.68;;;4.18;;
10617;SDS011;5356;43.526;26.534;2023-06-19T09:03:35;3.78;;;3.45;;
10617;SDS011;5356;43.526;26.534;2023-06-19T09:06:03;4.47;;;3.70;;
10617;SDS011;5356;43.526;26.534;2023-06-19T09:08:31;4.97;;;3.55;;
10617;SDS011;5356;43.526;26.534;2023-06-19T09:11:03;7.05;;;3.72;;
10617;SDS011;5356;43.526;26.534;2023-06-19T09:13:30;5.95;;;3.65;;
10617;SDS011;5356;43.526;26.534;2023-06-19T09:15:58;7.07;;;3.20;;
10617;SDS011;5356;43.526;26.534;2023-06-19T09:18:24;4.78;;;3.55;;
10617;SDS011;5356;43.526;26.534;2023-06-19T09:20:51;7.20;;;3.78;;
10617;SDS011;5356;43.526;26.534;2023-06-19T09:23:19;5.20;;;4.47;;
10617;SDS011;5356;43.526;26.534;2023-06-19T09:25:49;8.38;;;4.93;;
10617;SDS011;5356;43.526;26.534;2023-06-19T09:28:16;6.25;;;4.32;;
10617;SDS011;5356;43.526;26.534;2023-06-19T09:30:59;12.73;;;7.20;;
10617;SDS011;5356;43.526;26.534;2023-06-19T09:33:30;6.38;;;4.25;;
10617;SDS011;5356;43.526;26.534;2023-06-19T09:35:57;5.00;;;3.90;;
10617;SDS011;5356;43.526;26.534;2023-06-19T09:38:26;5.22;;;4.07;;
10617;SDS011;5356;43.526;26.534;2023-06-19T09:40:53;5.13;;;3.45;;
10617;SDS011;5356;43.526;26.534;2023-06-19T09:43:19;10.23;;;5.47;;
10617;SDS011;5356;43.526;26.534;2023-06-19T09:45:49;7.25;;;4.47;;
10617;SDS011;5356;43.526;26.534;2023-06-19T09:48:18;6.53;;;4.80;;
10617;SDS011;5356;43.526;26.534;2023-06-19T09:50:47;8.23;;;4.13;;
10617;SDS011;5356;43.526;26.534;2023-06-19T09:53:16;7.43;;;3.95;;
10617;SDS011;5356;43.526;26.534;2023-06-19T09:55:49;6.25;;;4.35;;
10617;SDS011;5356;43.526;26.534;2023-06-19T09:58:16;4.15;;;3.72;;
10617;SDS011;5356;43.526;26.534;2023-06-19T10:00:44;5.53;;;3.70;;
10617;SDS011;5356;43.526;26.534;2023-06-19T10:03:13;5.47;;;4.85;;
10617;SDS011;5356;43.526;26.534;2023-06-19T10:05:39;5.22;;;4.30;;
10617;SDS011;5356;43.526;26.534;2023-06-19T10:08:08;11.52;;;5.10;;
10617;SDS011;5356;43.526;26.534;2023-06-19T10:10:34;11.80;;;4.78;;
10617;SDS011;5356;43.526;26.534;2023-06-19T10:13:11;6.82;;;4.40;;
10617;SDS011;5356;43.526;26.534;2023-06-19T10:15:40;11.88;;;5.68;;
10617;SDS011;5356;43.526;26.534;2023-06-19T10:18:07;14.07;;;6.22;;
10617;SDS011;5356;43.526;26.534;2023-06-19T10:20:38;6.88;;;4.32;;
10617;SDS011;5356;43.526;26.534;2023-06-19T10:23:05;6.03;;;3.83;;
10617;SDS011;5356;43.526;26.534;2023-06-19T10:25:38;6.20;;;4.10;;
10617;SDS011;5356;43.526;26.534;2023-06-19T10:33:24;5.55;;;3.90;;
10617;SDS011;5356;43.526;26.534;2023-06-19T10:35:52;4.97;;;4.40;;
10617;SDS011;5356;43.526;26.534;2023-06-19T10:38:18;5.90;;;4.15;;
10617;SDS011;5356;43.526;26.534;2023-06-19T10:40:44;6.63;;;3.70;;
10617;SDS011;5356;43.526;26.534;2023-06-19T10:43:11;23.77;;;9.52;;
10617;SDS011;5356;43.526;26.534;2023-06-19T10:45:37;14.20;;;6.53;;
10617;SDS011;5356;43.526;26.534;2023-06-19T10:48:03;7.35;;;5.55;;
10617;SDS011;5356;43.526;26.534;2023-06-19T10:50:29;8.48;;;5.43;;
10617;SDS011;5356;43.526;26.534;2023-06-19T10:52:59;10.27;;;5.35;;
10617;SDS011;5356;43.526;26.534;2023-06-19T10:55:25;13.40;;;7.82;;
10617;SDS011;5356;43.526;26.534;2023-06-19T10:57:50;14.20;;;5.63;;
10617;SDS011;5356;43.526;26.534;2023-06-19T11:00:29;20.92;;;8.02;;
10617;SDS011;5356;43.526;26.534;2023-06-19T11:02:56;11.02;;;6.30;;
10617;SDS011;5356;43.526;26.534;2023-06-19T11:05:23;6.43;;;4.50;;
10617;SDS011;5356;43.526;26.534;2023-06-19T11:07:53;10.95;;;5.00;;
10617;SDS011;5356;43.526;26.534;2023-06-19T11:10:23;4.15;;;3.15;;
10617;SDS011;5356;43.526;26.534;2023-06-19T11:12:53;5.47;;;3.05;;
10617;SDS011;5356;43.526;26.534;2023-06-19T11:15:20;6.10;;;3.53;;
10617;SDS011;5356;43.526;26.534;2023-06-19T11:17:52;8.90;;;4.53;;
10617;SDS011;5356;43.526;26.534;2023-06-19T11:20:18;5.13;;;3.85;;
10617;SDS011;5356;43.526;26.534;2023-06-19T11:22:43;3.90;;;3.42;;
10617;SDS011;5356;43.526;26.534;2023-06-19T11:25:09;4.85;;;3.22;;
10617;SDS011;5356;43.526;26.534;2023-06-19T11:27:36;5.43;;;2.95;;
10617;SDS011;5356;43.526;26.534;2023-06-19T11:30:04;4.13;;;3.00;;
10617;SDS011;5356;43.526;26.534;2023-06-19T11:32:36;5.40;;;3.22;;
10617;SDS011;5356;43.526;26.534;2023-06-19T11:35:06;4.07;;;3.50;;
10617;SDS011;5356;43.526;26.534;2023-06-19T11:37:34;4.40;;;3.20;;
10617;SDS011;5356;43.526;26.534;2023-06-19T11:40:00;8.52;;;3.92;;
10617;SDS011;5356;43.526;26.534;2023-06-19T11:42:28;6.30;;;4.05;;
10617;SDS011;5356;43.526;26.534;2023-06-19T11:47:20;6.03;;;4.68;;
10617;SDS011;5356;43.526;26.534;2023-06-19T11:49:49;4.03;;;3.40;;
10617;SDS011;5356;43.526;26.534;2023-06-19T11:52:16;4.03;;;3.38;;
10617;SDS011;5356;43.526;26.534;2023-06-19T11:54:42;4.03;;;3.42;;
10617;SDS011;5356;43.526;26.534;2023-06-19T11:57:09;4.68;;;2.92;;
10617;SDS011;5356;43.526;26.534;2023-06-19T11:59:37;5.07;;;3.17;;
10617;SDS011;5356;43.526;26.534;2023-06-19T12:02:03;4.88;;;2.88;;
10617;SDS011;5356;43.526;26.534;2023-06-19T12:04:30;7.40;;;3.80;;
10617;SDS011;5356;43.526;26.534;2023-06-19T12:06:55;4.28;;;3.20;;
10617;SDS011;5356;43.526;26.534;2023-06-19T12:09:20;4.55;;;3.40;;
10617;SDS011;5356;43.526;26.534;2023-06-19T12:11:46;4.13;;;3.03;;
10617;SDS011;5356;43.526;26.534;2023-06-19T12:14:11;4.18;;;3.40;;
10617;SDS011;5356;43.526;26.534;2023-06-19T12:16:38;5.72;;;3.22;;
10617;SDS011;5356;43.526;26.534;2023-06-19T12:19:03;8.52;;;3.78;;
10617;SDS011;5356;43.526;26.534;2023-06-19T12:21:29;5.93;;;3.28;;
10617;SDS011;5356;43.526;26.534;2023-06-19T12:23:54;4.55;;;3.40;;
10617;SDS011;5356;43.526;26.534;2023-06-19T12:26:20;6.93;;;4.72;;
10617;SDS011;5356;43.526;26.534;2023-06-19T12:28:45;5.53;;;4.57;;
10617;SDS011;5356;43.526;26.534;2023-06-19T12:31:11;6.90;;;3.80;;
10617;SDS011;5356;43.526;26.534;2023-06-19T12:33:36;4.20;;;2.95;;
10617;SDS011;5356;43.526;26.534;2023-06-19T12:36:08;7.45;;;3.72;;
10617;SDS011;5356;43.526;26.534;2023-06-19T12:38:35;3.97;;;3.17;;
10617;SDS011;5356;43.526;26.534;2023-06-19T12:41:02;6.40;;;3.45;;
10617;SDS011;5356;43.526;26.534;2023-06-19T12:43:28;7.05;;;4.40;;
10617;SDS011;5356;43.526;26.534;2023-06-19T12:45:53;4.43;;;4.00;;
10617;SDS011;5356;43.526;26.534;2023-06-19T12:48:18;4.22;;;3.83;;
10617;SDS011;5356;43.526;26.534;2023-06-19T12:50:44;4.07;;;3.45;;
10617;SDS011;5356;43.526;26.534;2023-06-19T12:53:09;6.70;;;4.20;;
10617;SDS011;5356;43.526;26.534;2023-06-19T12:55:36;6.18;;;3.78;;
10617;SDS011;5356;43.526;26.534;2023-06-19T12:58:02;4.63;;;4.00;;
10617;SDS011;5356;43.526;26.534;2023-06-19T13:00:27;5.13;;;4.00;;
10617;SDS011;5356;43.526;26.534;2023-06-19T13:02:53;5.78;;;3.88;;
10617;SDS011;5356;43.526;26.534;2023-06-19T13:05:18;4.78;;;3.60;;
10617;SDS011;5356;43.526;26.534;2023-06-19T13:07:44;5.15;;;3.85;;
10617;SDS011;5356;43.526;26.534;2023-06-19T13:10:10;4.70;;;3.60;;
10617;SDS011;5356;43.526;26.534;2023-06-19T13:12:35;5.47;;;3.90;;
10617;SDS011;5356;43.526;26.534;2023-06-19T13:15:00;4.82;;;3.53;;
10617;SDS011;5356;43.526;26.534;2023-06-19T13:17:26;4.63;;;3.85;;
10617;SDS011;5356;43.526;26.534;2023-06-19T13:19:51;4.15;;;3.67;;
10617;SDS011;5356;43.526;26.534;2023-06-19T13:22:17;4.25;;;3.30;;
10617;SDS011;5356;43.526;26.534;2023-06-19T13:24:42;7.32;;;3.67;;
10617;SDS011;5356;43.526;26.534;2023-06-19T13:27:08;8.02;;;4.03;;
10617;SDS011;5356;43.526;26.534;2023-06-19T13:29:33;7.00;;;4.10;;
10617;SDS011;5356;43.526;26.534;2023-06-19T13:31:59;4.55;;;3.20;;
10617;SDS011;5356;43.526;26.534;2023-06-19T13:34:25;4.57;;;3.50;;
10617;SDS011;5356;43.526;26.534;2023-06-19T13:36:51;3.88;;;3.47;;
10617;SDS011;5356;43.526;26.534;2023-06-19T13:39:16;4.15;;;3.03;;
10617;SDS011;5356;43.526;26.534;2023-06-19T13:41:44;4.55;;;3.30;;
10617;SDS011;5356;43.526;26.534;2023-06-19T13:44:10;4.80;;;3.17;;
10617;SDS011;5356;43.526;26.534;2023-06-19T13:46:37;4.57;;;3.15;;
10617;SDS011;5356;43.526;26.534;2023-06-19T13:49:03;5.10;;;3.90;;
10617;SDS011;5356;43.526;26.534;2023-06-19T13:51:28;6.22;;;3.35;;
10617;SDS011;5356;43.526;26.534;2023-06-19T13:53:54;4.05;;;3.58;;
10617;SDS011;5356;43.526;26.534;2023-06-19T13:56:19;7.93;;;3.85;;
10617;SDS011;5356;43.526;26.534;2023-06-19T13:58:45;3.17;;;2.83;;
10617;SDS011;5356;43.526;26.534;2023-06-19T14:01:11;5.68;;;3.17;;
10617;SDS011;5356;43.526;26.534;2023-06-19T14:03:37;3.15;;;2.85;;
10617;SDS011;5356;43.526;26.534;2023-06-19T14:06:04;3.78;;;3.38;;
10617;SDS011;5356;43.526;26.534;2023-06-19T14:08:30;5.78;;;3.72;;
10617;SDS011;5356;43.526;26.534;2023-06-19T14:10:55;5.70;;;3.22;;
10617;SDS011;5356;43.526;26.534;2023-06-19T14:13:21;3.58;;;2.85;;
10617;SDS011;5356;43.526;26.534;2023-06-19T14:15:47;4.13;;;2.90;;
10617;SDS011;5356;43.526;26.534;2023-06-19T14:18:12;4.07;;;2.90;;
10617;SDS011;5356;43.526;26.534;2023-06-19T14:20:38;9.90;;;4.10;;
10617;SDS011;5356;43.526;26.534;2023-06-19T14:23:03;5.90;;;3.70;;
10617;SDS011;5356;43.526;26.534;2023-06-19T14:25:29;5.13;;;3.67;;
10617;SDS011;5356;43.526;26.534;2023-06-19T14:27:54;4.43;;;2.90;;
10617;SDS011;5356;43.526;26.534;2023-06-19T14:30:20;6.53;;;5.93;;
10617;SDS011;5356;43.526;26.534;2023-06-19T14:32:46;5.25;;;4.60;;
10617;SDS011;5356;43.526;26.534;2023-06-19T14:35:12;5.47;;;3.60;;
10617;SDS011;5356;43.526;26.534;2023-06-19T14:37:38;8.52;;;5.15;;
10617;SDS011;5356;43.526;26.534;2023-06-19T14:40:04;4.68;;;3.88;;
10617;SDS011;5356;43.526;26.534;2023-06-19T14:42:30;3.92;;;3.40;;
10617;SDS011;5356;43.526;26.534;2023-06-19T14:44:55;5.50;;;3.15;;
10617;SDS011;5356;43.526;26.534;2023-06-19T14:47:20;3.22;;;2.83;;
10617;SDS011;5356;43.526;26.534;2023-06-19T14:49:46;3.38;;;2.83;;